Moffett Field, California
Current Conditions -  °F | °C
As of 10:43 PM on Saturday 20 Dec 2014 (Local Time) from KNUQ Reporting Station
Overcast Overcast  
Wind Chill: 61°   Ceiling: 2800
Heat Index: 61°   Visibility: 10mi
Dew Point: 52°   Wind: 5mph
Humidity: 72%   Direction: 130°SE
Pressure: 30.26"   Gusts: NA
Location:  37.4154°N, 122.058°W
Report Text: KNUQ 210643Z 13004KT 10SM OVC028 16/11 A3026 RMK AO2
Loading
Personal Weather Stations






























Interactive Weather Map New forecast layout! Learn more

10-Day Weather Forecast

Advertisements
Track Severe Weather on mobile